Victoria Harbour (Camel Point) Heliport

CBF7 · Columbia Britannica, Canada

Storia di METAR CBF7 · Victoria Harbour (Camel Point) Heliport

Di seguito sono riportati i METAR degli ultimi giorni. Seleziona un anno per sfogliare i METAR più vecchi, dall'anno 2007 in poi.

14 luglio 2024

Tempo Codice Tempo meteorologico Temp. Vista Base nuvolosa Vento METAR/SPECI
15:00
V
20 °C 15 mi - 200° 200° 5 kt METAR CYWH 142200Z 20005KT 15SM SKC 20/12 A3003 RMK SLP171 DENSITY ALT 500FT
14:00
V
20 °C 15 mi - 200° 200° 3 kt METAR CYWH 142100Z 20003KT 160V250 15SM SKC 20/13 A3004 RMK SLP173 DENSITY ALT 500FT
13:00
V
17 °C 15 mi - 210° 210° 4 kt METAR CYWH 142000Z 21004KT 15SM SKC 17/13 A3004 RMK SLP175
12:00
V
17 °C 15 mi - 210° 210° 5 kt METAR CYWH 141900Z 21005KT 15SM SKC 17/12 A3004 RMK SLP175
11:00
V
19 °C 15 mi - 180° 180° 5 kt METAR CYWH 141800Z 18005KT 160V250 15SM SKC 19/12 A3004 RMK SLP175 DENSITY ALT 400FT
10:00
V
15 °C 15 mi - 230° 230° 5 kt METAR CYWH 141700Z 23005KT 15SM SKC 15/12 A3004 RMK SLP174
09:00
V
17 °C 15 mi - 250° 250° 3 kt METAR CYWH 141600Z 25003KT 15SM SKC 17/12 A3003 RMK SLP172
08:00
V
15 °C 15 mi - 250° 250° 2 kt METAR CYWH 141500Z 25002KT 15SM SKC 15/12 A3003 RMK SLP171
07:00
V
16 °C 15 mi - 360° 360° 3 kt METAR CYWH 141400Z 36003KT 15SM SKC 16/13 A3001 RMK SLP165
06:00
V
14 °C 15 mi - 360° 360° 0 kt METAR CYWH 141300Z 00000KT 15SM SKC 14/12 A3000 RMK SLP161

13 luglio 2024

Tempo Codice Tempo meteorologico Temp. Vista Base nuvolosa Vento METAR/SPECI
21:00
V
16 °C 15 mi - 360° 360° 0 kt METAR CYWH 140400Z 00000KT 15SM SKC 16/12 A2996 RMK LAST STFD OBS/NXT 141300Z SLP148
20:00
V
19 °C 15 mi - 230° 230° 5 kt METAR CYWH 140300Z 23005KT 180V250 15SM SKC 19/12 A2997 RMK SLP150 DENSITY ALT 500FT
19:00
V
20 °C 15 mi - 140° 140° 3 kt METAR CYWH 140200Z 14003KT 120V220 15SM SKC 20/14 A2997 RMK SLP152 DENSITY ALT 500FT
18:00
V
19 °C 15 mi - 210° 210° 4 kt METAR CYWH 140100Z 21004KT 170V230 15SM SKC 19/13 A2998 RMK SLP154 DENSITY ALT 400FT
17:00
V
18 °C 15 mi - 220° 220° 6 kt METAR CYWH 140000Z 22006KT 15SM SKC 18/13 A2999 RMK SLP158 DENSITY ALT 400FT
16:00
V
18 °C 15 mi - 230° 230° 6 kt METAR CYWH 132300Z 23006KT 15SM SKC 18/13 A3001 RMK SLP163 DENSITY ALT 300FT
15:00
V
18 °C 15 mi - 230° 230° 5 kt METAR CYWH 132200Z 23005KT 15SM SKC 18/12 A3002 RMK SLP167 DENSITY ALT 300FT
14:00
V
17 °C 15 mi - 220° 220° 7 kt METAR CYWH 132100Z 22007KT 15SM SKC 17/13 A3003 RMK SLP170
13:00
V
17 °C 15 mi - 220° 220° 7 kt METAR CYWH 132000Z 22007KT 15SM SKC 17/12 A3003 RMK SLP171
12:00
V
15 °C 15 mi - 230° 230° 5 kt METAR CYWH 131900Z 23005KT 15SM SKC 15/12 A3004 RMK SLP173
11:00
V
14 °C 15 mi - 230° 230° 6 kt METAR CYWH 131800Z 23006KT 15SM SKC 14/12 A3004 RMK SLP173
10:00
V
14 °C 15 mi - 240° 240° 5 kt METAR CYWH 131700Z 24005KT 15SM FEW230 14/12 A3004 RMK CI2 SLP175
09:00
V
14 °C 15 mi - 220° 220° 4 kt METAR CYWH 131600Z 22004KT 15SM FEW230 14/12 A3005 RMK CI1 SLP178
08:00
V
13 °C 15 mi - 240° 240° 4 kt METAR CYWH 131500Z 24004KT 15SM FEW230 13/11 A3005 RMK CI1 SLP177
07:00
V
15 °C 15 mi - Var Var 2 kt METAR CYWH 131400Z VRB02KT 15SM FEW230 15/12 A3004 RMK CI1 SLP173
06:00
V
14 °C 15 mi - Var Var 2 kt METAR CYWH 131300Z VRB02KT 15SM SKC 14/12 A3003 RMK SLP170

12 luglio 2024

Tempo Codice Tempo meteorologico Temp. Vista Base nuvolosa Vento METAR/SPECI
21:00
V
15 °C 15 mi - 230° 230° 4 kt METAR CYWH 130400Z 23004KT 15SM SKC 15/11 A2999 RMK LAST STFD OBS/ NEXT 131300Z SLP157
20:00
V
16 °C 15 mi - 220° 220° 7 kt METAR CYWH 130300Z 22007KT 15SM SKC 16/12 A3000 RMK SLP160
19:00
V
17 °C 15 mi - 220° 220° 5 kt METAR CYWH 130200Z 22005KT 15SM SKC 17/11 A3001 RMK SLP165
18:00
V
17 °C 15 mi - 170° 170° 4 kt METAR CYWH 130100Z 17004KT 15SM SKC 17/12 A3001 RMK SLP166
17:00
V
20 °C 15 mi - 190° 190° 4 kt METAR CYWH 130000Z 19004KT 15SM SKC 20/12 A3003 RMK SLP172 DENSITY ALT 500FT
16:00
V
17 °C 15 mi - 220° 220° 5 kt METAR CYWH 122300Z 22005KT 15SM FEW230 17/12 A3005 RMK CI1 CI TR SLP178
15:00
V
16 °C 15 mi - 220° 220° 6 kt METAR CYWH 122200Z 22006KT 15SM SKC 16/12 A3006 RMK SLP182
14:00
V
17 °C 15 mi - 220° 220° 7 kt METAR CYWH 122100Z 22007KT 15SM SKC 17/12 A3008 RMK SLP187
13:00
V
16 °C 15 mi - 220° 220° 7 kt METAR CYWH 122000Z 22007KT 15SM SKC 16/12 A3009 RMK SLP190
12:00
V
15 °C 15 mi - 220° 220° 6 kt METAR CYWH 121900Z 22006KT 15SM SKC 15/11 A3010 RMK SLP194
11:00
V
14 °C 15 mi - 220° 220° 5 kt METAR CYWH 121800Z 22005KT 15SM SKC 14/11 A3011 RMK SLP197
10:00
V
14 °C 15 mi - 210° 210° 4 kt METAR CYWH 121700Z 21004KT 15SM SKC 14/11 A3011 RMK SLP198
09:00
V
14 °C 15 mi - 210° 210° 4 kt METAR CYWH 121600Z 21004KT 15SM SKC 14/11 A3011 RMK SLP199
08:00
V
14 °C 15 mi - 230° 230° 5 kt METAR CYWH 121500Z 23005KT 15SM SKC 14/11 A3012 RMK SLP201
07:00
V
14 °C 15 mi - 360° 360° 0 kt METAR CYWH 121400Z 00000KT 15SM SKC 14/11 A3011 RMK SLP197
06:00
V
13 °C 15 mi - 360° 360° 0 kt METAR CYWH 121300Z 00000KT 15SM SKC 13/11 A3010 RMK SLP195
Segnala modifiche